sensor_id;sensor_type;location;lat;lon;timestamp;P1;durP1;ratioP1;P2;durP2;ratioP2
10132;SDS011;5106;50.926;7.080;2023-12-28T00:02:21;3.23;;;1.67;;
10132;SDS011;5106;50.926;7.080;2023-12-28T00:04:47;3.20;;;1.75;;
10132;SDS011;5106;50.926;7.080;2023-12-28T00:07:12;1.73;;;1.53;;
10132;SDS011;5106;50.926;7.080;2023-12-28T00:09:38;2.53;;;1.60;;
10132;SDS011;5106;50.926;7.080;2023-12-28T00:12:04;3.87;;;1.80;;
10132;SDS011;5106;50.926;7.080;2023-12-28T00:14:30;1.77;;;1.33;;
10132;SDS011;5106;50.926;7.080;2023-12-28T00:16:57;2.57;;;1.40;;
10132;SDS011;5106;50.926;7.080;2023-12-28T00:19:22;2.03;;;1.60;;
10132;SDS011;5106;50.926;7.080;2023-12-28T00:21:48;2.20;;;1.43;;
10132;SDS011;5106;50.926;7.080;2023-12-28T00:24:15;2.83;;;1.60;;
10132;SDS011;5106;50.926;7.080;2023-12-28T00:26:40;3.00;;;1.50;;
10132;SDS011;5106;50.926;7.080;2023-12-28T00:29:06;1.73;;;1.40;;
10132;SDS011;5106;50.926;7.080;2023-12-28T00:31:31;2.20;;;1.40;;
10132;SDS011;5106;50.926;7.080;2023-12-28T00:33:57;3.10;;;1.60;;
10132;SDS011;5106;50.926;7.080;2023-12-28T00:36:22;2.17;;;1.43;;
10132;SDS011;5106;50.926;7.080;2023-12-28T00:38:48;1.98;;;1.45;;
10132;SDS011;5106;50.926;7.080;2023-12-28T00:41:14;1.90;;;1.33;;
10132;SDS011;5106;50.926;7.080;2023-12-28T00:43:39;2.50;;;1.55;;
10132;SDS011;5106;50.926;7.080;2023-12-28T00:46:05;1.58;;;1.48;;
10132;SDS011;5106;50.926;7.080;2023-12-28T00:48:30;2.00;;;1.50;;
10132;SDS011;5106;50.926;7.080;2023-12-28T00:50:56;1.30;;;1.20;;
10132;SDS011;5106;50.926;7.080;2023-12-28T00:53:23;2.55;;;1.35;;
10132;SDS011;5106;50.926;7.080;2023-12-28T00:55:50;2.50;;;1.67;;
10132;SDS011;5106;50.926;7.080;2023-12-28T00:58:15;2.35;;;1.50;;
10132;SDS011;5106;50.926;7.080;2023-12-28T01:00:41;1.90;;;1.48;;
10132;SDS011;5106;50.926;7.080;2023-12-28T01:03:06;1.40;;;1.30;;
10132;SDS011;5106;50.926;7.080;2023-12-28T01:05:32;4.32;;;1.67;;
10132;SDS011;5106;50.926;7.080;2023-12-28T01:07:58;5.97;;;1.30;;
10132;SDS011;5106;50.926;7.080;2023-12-28T01:10:23;2.63;;;1.30;;
10132;SDS011;5106;50.926;7.080;2023-12-28T01:12:49;2.03;;;1.50;;
10132;SDS011;5106;50.926;7.080;2023-12-28T01:15:14;1.92;;;1.27;;
10132;SDS011;5106;50.926;7.080;2023-12-28T01:17:42;1.60;;;1.40;;
10132;SDS011;5106;50.926;7.080;2023-12-28T01:20:08;1.60;;;1.40;;
10132;SDS011;5106;50.926;7.080;2023-12-28T01:22:34;1.90;;;1.40;;
10132;SDS011;5106;50.926;7.080;2023-12-28T01:24:59;2.20;;;1.35;;
10132;SDS011;5106;50.926;7.080;2023-12-28T01:27:25;1.92;;;1.30;;
10132;SDS011;5106;50.926;7.080;2023-12-28T01:29:50;1.50;;;1.25;;
10132;SDS011;5106;50.926;7.080;2023-12-28T01:32:16;2.47;;;1.23;;
10132;SDS011;5106;50.926;7.080;2023-12-28T01:34:41;1.20;;;1.10;;
10132;SDS011;5106;50.926;7.080;2023-12-28T01:37:08;1.73;;;1.20;;
10132;SDS011;5106;50.926;7.080;2023-12-28T01:39:33;1.92;;;1.20;;
10132;SDS011;5106;50.926;7.080;2023-12-28T01:41:59;1.10;;;1.00;;
10132;SDS011;5106;50.926;7.080;2023-12-28T01:44:24;2.00;;;1.27;;
10132;SDS011;5106;50.926;7.080;2023-12-28T01:46:50;1.73;;;1.05;;
10132;SDS011;5106;50.926;7.080;2023-12-28T01:49:16;1.13;;;0.95;;
10132;SDS011;5106;50.926;7.080;2023-12-28T01:51:41;1.33;;;0.90;;
10132;SDS011;5106;50.926;7.080;2023-12-28T01:54:09;2.30;;;1.00;;
10132;SDS011;5106;50.926;7.080;2023-12-28T01:56:35;1.92;;;1.10;;
10132;SDS011;5106;50.926;7.080;2023-12-28T01:59:01;1.48;;;0.98;;
10132;SDS011;5106;50.926;7.080;2023-12-28T02:01:27;3.25;;;1.17;;
10132;SDS011;5106;50.926;7.080;2023-12-28T02:03:53;1.00;;;0.90;;
10132;SDS011;5106;50.926;7.080;2023-12-28T02:06:20;1.02;;;0.90;;
10132;SDS011;5106;50.926;7.080;2023-12-28T02:08:48;2.92;;;1.13;;
10132;SDS011;5106;50.926;7.080;2023-12-28T02:11:13;1.30;;;1.10;;
10132;SDS011;5106;50.926;7.080;2023-12-28T02:13:39;1.35;;;1.00;;
10132;SDS011;5106;50.926;7.080;2023-12-28T02:16:24;2.05;;;1.20;;
10132;SDS011;5106;50.926;7.080;2023-12-28T02:18:56;1.33;;;0.95;;
10132;SDS011;5106;50.926;7.080;2023-12-28T02:21:25;1.90;;;0.90;;
10132;SDS011;5106;50.926;7.080;2023-12-28T02:23:52;1.80;;;0.98;;
10132;SDS011;5106;50.926;7.080;2023-12-28T02:26:18;1.58;;;0.90;;
10132;SDS011;5106;50.926;7.080;2023-12-28T02:28:44;2.15;;;1.00;;
10132;SDS011;5106;50.926;7.080;2023-12-28T02:31:12;1.30;;;0.70;;
10132;SDS011;5106;50.926;7.080;2023-12-28T02:33:48;1.50;;;0.82;;
10132;SDS011;5106;50.926;7.080;2023-12-28T02:36:22;1.80;;;0.80;;
10132;SDS011;5106;50.926;7.080;2023-12-28T02:38:48;1.35;;;0.88;;
10132;SDS011;5106;50.926;7.080;2023-12-28T02:41:16;1.10;;;1.00;;
10132;SDS011;5106;50.926;7.080;2023-12-28T02:43:42;1.10;;;1.00;;
10132;SDS011;5106;50.926;7.080;2023-12-28T02:46:08;1.63;;;0.80;;
10132;SDS011;5106;50.926;7.080;2023-12-28T02:48:33;0.77;;;0.77;;
10132;SDS011;5106;50.926;7.080;2023-12-28T02:50:59;0.85;;;0.80;;
10132;SDS011;5106;50.926;7.080;2023-12-28T02:53:25;1.00;;;0.90;;
10132;SDS011;5106;50.926;7.080;2023-12-28T02:55:50;1.35;;;1.00;;
10132;SDS011;5106;50.926;7.080;2023-12-28T02:58:16;0.93;;;0.70;;
10132;SDS011;5106;50.926;7.080;2023-12-28T03:00:41;0.90;;;0.70;;
10132;SDS011;5106;50.926;7.080;2023-12-28T03:03:07;1.08;;;0.90;;
10132;SDS011;5106;50.926;7.080;2023-12-28T03:05:32;1.00;;;0.90;;
10132;SDS011;5106;50.926;7.080;2023-12-28T03:07:58;1.10;;;1.00;;
10132;SDS011;5106;50.926;7.080;2023-12-28T03:10:23;1.92;;;1.10;;
10132;SDS011;5106;50.926;7.080;2023-12-28T03:12:49;1.05;;;0.90;;
10132;SDS011;5106;50.926;7.080;2023-12-28T03:15:15;1.00;;;0.90;;
10132;SDS011;5106;50.926;7.080;2023-12-28T03:17:40;1.33;;;1.05;;
10132;SDS011;5106;50.926;7.080;2023-12-28T03:20:06;1.25;;;1.15;;
10132;SDS011;5106;50.926;7.080;2023-12-28T03:22:32;1.40;;;1.10;;
10132;SDS011;5106;50.926;7.080;2023-12-28T03:24:58;1.48;;;0.93;;
10132;SDS011;5106;50.926;7.080;2023-12-28T03:27:24;1.92;;;1.08;;
10132;SDS011;5106;50.926;7.080;2023-12-28T03:29:49;1.40;;;1.00;;
10132;SDS011;5106;50.926;7.080;2023-12-28T03:32:15;1.23;;;1.10;;
10132;SDS011;5106;50.926;7.080;2023-12-28T03:34:40;1.15;;;1.05;;
10132;SDS011;5106;50.926;7.080;2023-12-28T03:37:06;1.83;;;1.00;;
10132;SDS011;5106;50.926;7.080;2023-12-28T03:39:32;1.40;;;1.20;;
10132;SDS011;5106;50.926;7.080;2023-12-28T03:41:58;2.60;;;1.30;;
10132;SDS011;5106;50.926;7.080;2023-12-28T03:44:23;1.10;;;1.00;;
10132;SDS011;5106;50.926;7.080;2023-12-28T03:46:50;1.38;;;1.20;;
10132;SDS011;5106;50.926;7.080;2023-12-28T03:49:19;1.17;;;0.98;;
10132;SDS011;5106;50.926;7.080;2023-12-28T03:51:46;1.90;;;1.00;;
10132;SDS011;5106;50.926;7.080;2023-12-28T03:54:15;1.23;;;1.10;;
10132;SDS011;5106;50.926;7.080;2023-12-28T03:56:42;1.67;;;1.20;;
10132;SDS011;5106;50.926;7.080;2023-12-28T03:59:08;1.70;;;1.13;;
10132;SDS011;5106;50.926;7.080;2023-12-28T04:01:34;1.63;;;1.30;;
10132;SDS011;5106;50.926;7.080;2023-12-28T04:04:00;1.50;;;1.10;;
10132;SDS011;5106;50.926;7.080;2023-12-28T04:06:25;1.35;;;1.17;;
10132;SDS011;5106;50.926;7.080;2023-12-28T04:08:51;1.50;;;1.20;;
10132;SDS011;5106;50.926;7.080;2023-12-28T04:11:17;1.48;;;1.08;;
10132;SDS011;5106;50.926;7.080;2023-12-28T04:13:42;1.13;;;1.03;;
10132;SDS011;5106;50.926;7.080;2023-12-28T04:16:11;1.83;;;1.27;;
10132;SDS011;5106;50.926;7.080;2023-12-28T04:18:38;4.20;;;1.30;;
10132;SDS011;5106;50.926;7.080;2023-12-28T04:21:03;1.77;;;1.00;;
10132;SDS011;5106;50.926;7.080;2023-12-28T04:23:29;1.40;;;1.20;;
10132;SDS011;5106;50.926;7.080;2023-12-28T04:25:54;1.43;;;1.17;;
10132;SDS011;5106;50.926;7.080;2023-12-28T04:28:20;1.70;;;1.20;;
10132;SDS011;5106;50.926;7.080;2023-12-28T04:30:46;3.10;;;1.30;;
10132;SDS011;5106;50.926;7.080;2023-12-28T04:33:11;2.13;;;1.30;;
10132;SDS011;5106;50.926;7.080;2023-12-28T04:35:37;1.40;;;1.23;;
10132;SDS011;5106;50.926;7.080;2023-12-28T04:38:02;1.47;;;1.10;;
10132;SDS011;5106;50.926;7.080;2023-12-28T04:40:28;2.23;;;1.30;;
10132;SDS011;5106;50.926;7.080;2023-12-28T04:42:54;1.77;;;1.10;;
10132;SDS011;5106;50.926;7.080;2023-12-28T04:45:20;1.50;;;1.30;;
10132;SDS011;5106;50.926;7.080;2023-12-28T04:47:47;2.43;;;1.30;;
10132;SDS011;5106;50.926;7.080;2023-12-28T04:50:12;1.77;;;1.20;;
10132;SDS011;5106;50.926;7.080;2023-12-28T04:52:38;1.90;;;1.27;;
10132;SDS011;5106;50.926;7.080;2023-12-28T04:55:06;2.47;;;1.20;;
10132;SDS011;5106;50.926;7.080;2023-12-28T04:57:31;2.27;;;1.40;;
10132;SDS011;5106;50.926;7.080;2023-12-28T04:59:57;1.90;;;1.30;;
10132;SDS011;5106;50.926;7.080;2023-12-28T05:02:22;1.97;;;1.30;;
10132;SDS011;5106;50.926;7.080;2023-12-28T05:04:48;2.10;;;1.30;;
10132;SDS011;5106;50.926;7.080;2023-12-28T05:07:14;1.70;;;1.30;;
10132;SDS011;5106;50.926;7.080;2023-12-28T05:09:39;1.83;;;1.37;;
10132;SDS011;5106;50.926;7.080;2023-12-28T05:12:05;3.07;;;1.30;;
10132;SDS011;5106;50.926;7.080;2023-12-28T05:14:30;3.00;;;1.30;;
10132;SDS011;5106;50.926;7.080;2023-12-28T05:16:56;1.93;;;1.33;;
10132;SDS011;5106;50.926;7.080;2023-12-28T05:19:22;2.10;;;1.40;;
10132;SDS011;5106;50.926;7.080;2023-12-28T05:21:47;3.20;;;1.40;;
10132;SDS011;5106;50.926;7.080;2023-12-28T05:24:13;2.40;;;1.50;;
10132;SDS011;5106;50.926;7.080;2023-12-28T05:26:39;2.50;;;1.50;;
10132;SDS011;5106;50.926;7.080;2023-12-28T05:29:04;1.50;;;1.30;;
10132;SDS011;5106;50.926;7.080;2023-12-28T05:31:30;2.30;;;1.47;;
10132;SDS011;5106;50.926;7.080;2023-12-28T05:33:56;2.03;;;1.53;;
10132;SDS011;5106;50.926;7.080;2023-12-28T05:36:23;2.47;;;1.60;;
10132;SDS011;5106;50.926;7.080;2023-12-28T05:38:49;2.47;;;1.60;;
10132;SDS011;5106;50.926;7.080;2023-12-28T05:41:14;2.87;;;1.63;;
10132;SDS011;5106;50.926;7.080;2023-12-28T05:43:40;2.97;;;1.67;;
10132;SDS011;5106;50.926;7.080;2023-12-28T05:46:06;2.67;;;1.70;;
10132;SDS011;5106;50.926;7.080;2023-12-28T05:48:31;2.83;;;1.50;;
10132;SDS011;5106;50.926;7.080;2023-12-28T05:50:57;4.67;;;1.70;;
10132;SDS011;5106;50.926;7.080;2023-12-28T05:53:25;2.20;;;1.40;;
10132;SDS011;5106;50.926;7.080;2023-12-28T05:55:52;4.23;;;1.60;;
10132;SDS011;5106;50.926;7.080;2023-12-28T05:58:18;4.87;;;1.73;;
10132;SDS011;5106;50.926;7.080;2023-12-28T06:00:44;3.33;;;1.60;;
10132;SDS011;5106;50.926;7.080;2023-12-28T06:03:11;5.20;;;1.63;;
10132;SDS011;5106;50.926;7.080;2023-12-28T06:05:37;2.15;;;1.40;;
10132;SDS011;5106;50.926;7.080;2023-12-28T06:08:02;3.90;;;1.65;;
10132;SDS011;5106;50.926;7.080;2023-12-28T06:10:28;3.37;;;1.63;;
10132;SDS011;5106;50.926;7.080;2023-12-28T06:12:54;3.23;;;1.60;;
10132;SDS011;5106;50.926;7.080;2023-12-28T06:15:20;4.90;;;1.90;;
10132;SDS011;5106;50.926;7.080;2023-12-28T06:17:45;1.47;;;1.27;;
10132;SDS011;5106;50.926;7.080;2023-12-28T06:20:11;1.87;;;1.40;;
10132;SDS011;5106;50.926;7.080;2023-12-28T06:22:36;2.07;;;1.43;;
10132;SDS011;5106;50.926;7.080;2023-12-28T06:25:02;2.03;;;1.37;;
10132;SDS011;5106;50.926;7.080;2023-12-28T06:27:28;2.33;;;1.60;;
10132;SDS011;5106;50.926;7.080;2023-12-28T06:29:54;1.83;;;1.33;;
10132;SDS011;5106;50.926;7.080;2023-12-28T06:32:20;3.13;;;1.60;;
10132;SDS011;5106;50.926;7.080;2023-12-28T06:34:46;3.30;;;1.50;;
10132;SDS011;5106;50.926;7.080;2023-12-28T06:37:12;2.20;;;1.50;;
10132;SDS011;5106;50.926;7.080;2023-12-28T06:39:38;2.77;;;1.47;;
10132;SDS011;5106;50.926;7.080;2023-12-28T06:42:04;2.00;;;1.53;;
10132;SDS011;5106;50.926;7.080;2023-12-28T06:44:29;2.13;;;1.30;;
10132;SDS011;5106;50.926;7.080;2023-12-28T06:46:55;1.97;;;1.43;;
10132;SDS011;5106;50.926;7.080;2023-12-28T06:49:21;3.90;;;1.30;;
10132;SDS011;5106;50.926;7.080;2023-12-28T06:51:46;3.27;;;1.40;;
10132;SDS011;5106;50.926;7.080;2023-12-28T06:54:13;3.50;;;1.53;;
10132;SDS011;5106;50.926;7.080;2023-12-28T06:56:38;2.50;;;1.50;;
10132;SDS011;5106;50.926;7.080;2023-12-28T06:59:04;2.43;;;1.20;;
10132;SDS011;5106;50.926;7.080;2023-12-28T07:01:29;5.67;;;1.30;;
10132;SDS011;5106;50.926;7.080;2023-12-28T07:03:55;3.63;;;1.30;;
10132;SDS011;5106;50.926;7.080;2023-12-28T07:06:20;1.90;;;1.30;;
10132;SDS011;5106;50.926;7.080;2023-12-28T07:08:46;2.17;;;1.50;;
10132;SDS011;5106;50.926;7.080;2023-12-28T07:11:12;3.13;;;1.40;;
10132;SDS011;5106;50.926;7.080;2023-12-28T07:13:37;1.70;;;1.40;;
10132;SDS011;5106;50.926;7.080;2023-12-28T07:16:03;2.97;;;1.57;;
10132;SDS011;5106;50.926;7.080;2023-12-28T07:18:29;3.07;;;1.70;;
10132;SDS011;5106;50.926;7.080;2023-12-28T07:20:55;2.53;;;1.60;;
10132;SDS011;5106;50.926;7.080;2023-12-28T07:23:20;2.23;;;1.33;;
10132;SDS011;5106;50.926;7.080;2023-12-28T07:25:46;2.53;;;1.50;;
10132;SDS011;5106;50.926;7.080;2023-12-28T07:28:12;3.47;;;1.63;;
10132;SDS011;5106;50.926;7.080;2023-12-28T07:30:38;2.10;;;1.40;;
10132;SDS011;5106;50.926;7.080;2023-12-28T07:33:03;1.83;;;1.50;;
10132;SDS011;5106;50.926;7.080;2023-12-28T07:35:29;4.23;;;1.43;;
10132;SDS011;5106;50.926;7.080;2023-12-28T07:37:55;2.13;;;1.50;;
10132;SDS011;5106;50.926;7.080;2023-12-28T07:40:20;3.00;;;1.60;;
10132;SDS011;5106;50.926;7.080;2023-12-28T07:42:46;3.00;;;1.63;;
10132;SDS011;5106;50.926;7.080;2023-12-28T07:45:12;4.33;;;1.67;;
10132;SDS011;5106;50.926;7.080;2023-12-28T07:47:37;2.67;;;1.70;;
10132;SDS011;5106;50.926;7.080;2023-12-28T07:50:03;3.53;;;1.67;;
10132;SDS011;5106;50.926;7.080;2023-12-28T07:52:29;1.90;;;1.30;;
10132;SDS011;5106;50.926;7.080;2023-12-28T07:54:55;3.13;;;1.70;;
10132;SDS011;5106;50.926;7.080;2023-12-28T07:57:20;2.77;;;1.63;;
10132;SDS011;5106;50.926;7.080;2023-12-28T07:59:46;2.60;;;1.77;;
10132;SDS011;5106;50.926;7.080;2023-12-28T08:02:12;2.63;;;1.53;;
10132;SDS011;5106;50.926;7.080;2023-12-28T08:04:37;1.77;;;1.60;;
10132;SDS011;5106;50.926;7.080;2023-12-28T08:07:03;2.70;;;1.53;;
10132;SDS011;5106;50.926;7.080;2023-12-28T08:09:29;2.10;;;1.60;;
10132;SDS011;5106;50.926;7.080;2023-12-28T08:11:55;3.63;;;1.40;;
10132;SDS011;5106;50.926;7.080;2023-12-28T08:14:21;2.60;;;1.70;;
10132;SDS011;5106;50.926;7.080;2023-12-28T08:16:46;4.03;;;1.60;;
10132;SDS011;5106;50.926;7.080;2023-12-28T08:19:12;2.57;;;1.40;;
10132;SDS011;5106;50.926;7.080;2023-12-28T08:21:37;1.70;;;1.37;;
10132;SDS011;5106;50.926;7.080;2023-12-28T08:24:03;2.37;;;1.70;;
10132;SDS011;5106;50.926;7.080;2023-12-28T08:26:29;6.27;;;1.67;;
10132;SDS011;5106;50.926;7.080;2023-12-28T08:28:54;2.93;;;1.60;;
10132;SDS011;5106;50.926;7.080;2023-12-28T08:31:20;4.07;;;1.70;;
10132;SDS011;5106;50.926;7.080;2023-12-28T08:33:46;3.00;;;1.40;;
10132;SDS011;5106;50.926;7.080;2023-12-28T08:36:12;4.87;;;2.10;;
10132;SDS011;5106;50.926;7.080;2023-12-28T08:38:38;3.93;;;1.73;;
10132;SDS011;5106;50.926;7.080;2023-12-28T08:41:03;2.13;;;1.50;;
10132;SDS011;5106;50.926;7.080;2023-12-28T08:43:33;3.10;;;1.70;;
10132;SDS011;5106;50.926;7.080;2023-12-28T08:46:00;3.23;;;1.93;;
10132;SDS011;5106;50.926;7.080;2023-12-28T08:48:25;4.70;;;1.77;;
10132;SDS011;5106;50.926;7.080;2023-12-28T08:50:51;3.93;;;1.80;;
10132;SDS011;5106;50.926;7.080;2023-12-28T08:53:16;2.97;;;1.90;;
10132;SDS011;5106;50.926;7.080;2023-12-28T08:55:42;3.90;;;1.83;;
10132;SDS011;5106;50.926;7.080;2023-12-28T08:58:08;3.97;;;1.60;;
10132;SDS011;5106;50.926;7.080;2023-12-28T09:00:33;2.73;;;1.73;;
10132;SDS011;5106;50.926;7.080;2023-12-28T09:02:59;2.87;;;1.43;;
10132;SDS011;5106;50.926;7.080;2023-12-28T09:05:24;3.57;;;1.80;;
10132;SDS011;5106;50.926;7.080;2023-12-28T09:07:50;3.83;;;1.80;;
10132;SDS011;5106;50.926;7.080;2023-12-28T09:10:15;2.87;;;1.50;;
10132;SDS011;5106;50.926;7.080;2023-12-28T09:12:41;4.50;;;1.80;;
10132;SDS011;5106;50.926;7.080;2023-12-28T09:15:07;6.27;;;1.63;;
10132;SDS011;5106;50.926;7.080;2023-12-28T09:17:33;4.20;;;1.87;;
10132;SDS011;5106;50.926;7.080;2023-12-28T09:19:59;5.07;;;1.47;;
10132;SDS011;5106;50.926;7.080;2023-12-28T09:22:26;5.93;;;1.55;;
10132;SDS011;5106;50.926;7.080;2023-12-28T09:24:52;4.53;;;1.50;;
10132;SDS011;5106;50.926;7.080;2023-12-28T09:27:17;4.85;;;1.70;;
10132;SDS011;5106;50.926;7.080;2023-12-28T09:29:43;5.68;;;1.73;;
10132;SDS011;5106;50.926;7.080;2023-12-28T09:32:08;3.20;;;1.60;;
10132;SDS011;5106;50.926;7.080;2023-12-28T09:34:34;4.27;;;1.30;;
10132;SDS011;5106;50.926;7.080;2023-12-28T09:37:00;3.33;;;1.30;;
10132;SDS011;5106;50.926;7.080;2023-12-28T09:39:25;7.38;;;1.70;;
10132;SDS011;5106;50.926;7.080;2023-12-28T09:41:59;5.00;;;1.75;;
10132;SDS011;5106;50.926;7.080;2023-12-28T09:44:29;4.50;;;1.70;;
10132;SDS011;5106;50.926;7.080;2023-12-28T09:46:56;4.60;;;1.65;;
10132;SDS011;5106;50.926;7.080;2023-12-28T09:49:23;3.58;;;1.58;;
10132;SDS011;5106;50.926;7.080;2023-12-28T09:51:48;4.97;;;1.67;;
10132;SDS011;5106;50.926;7.080;2023-12-28T09:54:14;6.90;;;1.77;;
10132;SDS011;5106;50.926;7.080;2023-12-28T09:56:40;6.03;;;1.63;;
10132;SDS011;5106;50.926;7.080;2023-12-28T09:59:06;5.43;;;1.50;;
10132;SDS011;5106;50.926;7.080;2023-12-28T10:01:32;3.50;;;1.48;;
10132;SDS011;5106;50.926;7.080;2023-12-28T10:04:00;5.03;;;1.60;;
10132;SDS011;5106;50.926;7.080;2023-12-28T10:06:28;4.30;;;1.52;;
10132;SDS011;5106;50.926;7.080;2023-12-28T10:08:53;5.95;;;2.00;;
10132;SDS011;5106;50.926;7.080;2023-12-28T10:11:20;3.72;;;1.48;;
10132;SDS011;5106;50.926;7.080;2023-12-28T10:13:48;4.30;;;1.70;;
10132;SDS011;5106;50.926;7.080;2023-12-28T10:16:14;3.22;;;1.50;;
10132;SDS011;5106;50.926;7.080;2023-12-28T10:18:41;3.63;;;1.25;;
10132;SDS011;5106;50.926;7.080;2023-12-28T10:21:08;2.47;;;1.60;;
10132;SDS011;5106;50.926;7.080;2023-12-28T10:23:34;3.03;;;1.35;;
10132;SDS011;5106;50.926;7.080;2023-12-28T10:26:00;3.67;;;1.77;;
10132;SDS011;5106;50.926;7.080;2023-12-28T10:28:27;4.97;;;1.40;;
10132;SDS011;5106;50.926;7.080;2023-12-28T10:30:55;5.30;;;1.60;;
10132;SDS011;5106;50.926;7.080;2023-12-28T10:33:21;4.10;;;1.65;;
10132;SDS011;5106;50.926;7.080;2023-12-28T10:35:47;3.70;;;1.55;;
10132;SDS011;5106;50.926;7.080;2023-12-28T10:38:16;5.65;;;1.67;;
10132;SDS011;5106;50.926;7.080;2023-12-28T10:40:43;4.38;;;1.42;;
10132;SDS011;5106;50.926;7.080;2023-12-28T10:43:11;3.83;;;1.50;;
10132;SDS011;5106;50.926;7.080;2023-12-28T10:45:39;10.07;;;1.92;;
10132;SDS011;5106;50.926;7.080;2023-12-28T10:50:43;5.75;;;1.55;;
10132;SDS011;5106;50.926;7.080;2023-12-28T10:53:33;5.07;;;1.65;;
10132;SDS011;5106;50.926;7.080;2023-12-28T10:58:49;6.93;;;1.80;;
10132;SDS011;5106;50.926;7.080;2023-12-28T11:01:26;3.67;;;1.88;;
10132;SDS011;5106;50.926;7.080;2023-12-28T11:04:04;4.63;;;1.67;;
10132;SDS011;5106;50.926;7.080;2023-12-28T11:06:35;6.13;;;1.83;;
10132;SDS011;5106;50.926;7.080;2023-12-28T11:09:03;3.25;;;1.65;;
10132;SDS011;5106;50.926;7.080;2023-12-28T11:11:30;4.13;;;1.60;;
10132;SDS011;5106;50.926;7.080;2023-12-28T11:13:58;5.40;;;1.85;;
10132;SDS011;5106;50.926;7.080;2023-12-28T11:16:25;4.93;;;1.80;;
10132;SDS011;5106;50.926;7.080;2023-12-28T11:18:52;7.80;;;1.60;;
10132;SDS011;5106;50.926;7.080;2023-12-28T11:21:19;3.47;;;1.70;;
10132;SDS011;5106;50.926;7.080;2023-12-28T11:23:46;6.07;;;1.73;;
10132;SDS011;5106;50.926;7.080;2023-12-28T11:26:16;5.05;;;1.50;;
10132;SDS011;5106;50.926;7.080;2023-12-28T11:28:43;4.93;;;1.58;;
10132;SDS011;5106;50.926;7.080;2023-12-28T11:31:15;3.88;;;1.60;;
10132;SDS011;5106;50.926;7.080;2023-12-28T11:33:46;3.78;;;1.33;;
10132;SDS011;5106;50.926;7.080;2023-12-28T11:36:23;4.07;;;1.60;;
10132;SDS011;5106;50.926;7.080;2023-12-28T11:39:03;3.88;;;1.50;;
10132;SDS011;5106;50.926;7.080;2023-12-28T11:41:32;4.10;;;1.55;;
10132;SDS011;5106;50.926;7.080;2023-12-28T11:44:01;4.70;;;1.40;;
10132;SDS011;5106;50.926;7.080;2023-12-28T11:46:31;5.30;;;1.63;;
10132;SDS011;5106;50.926;7.080;2023-12-28T11:49:06;5.35;;;1.60;;
10132;SDS011;5106;50.926;7.080;2023-12-28T11:51:34;5.68;;;1.52;;
10132;SDS011;5106;50.926;7.080;2023-12-28T11:54:02;5.32;;;1.50;;
10132;SDS011;5106;50.926;7.080;2023-12-28T11:56:28;5.63;;;1.80;;
10132;SDS011;5106;50.926;7.080;2023-12-28T11:58:55;3.67;;;1.48;;
10132;SDS011;5106;50.926;7.080;2023-12-28T12:01:20;2.08;;;1.27;;
10132;SDS011;5106;50.926;7.080;2023-12-28T12:03:46;4.88;;;1.65;;
10132;SDS011;5106;50.926;7.080;2023-12-28T12:06:13;5.38;;;1.40;;
10132;SDS011;5106;50.926;7.080;2023-12-28T12:08:39;4.22;;;1.60;;
10132;SDS011;5106;50.926;7.080;2023-12-28T12:11:05;5.55;;;1.40;;
10132;SDS011;5106;50.926;7.080;2023-12-28T12:13:32;3.67;;;1.40;;
10132;SDS011;5106;50.926;7.080;2023-12-28T12:15:58;4.82;;;1.60;;
10132;SDS011;5106;50.926;7.080;2023-12-28T12:18:24;4.90;;;1.50;;
10132;SDS011;5106;50.926;7.080;2023-12-28T12:20:50;3.80;;;1.58;;
10132;SDS011;5106;50.926;7.080;2023-12-28T12:23:16;3.00;;;1.40;;
10132;SDS011;5106;50.926;7.080;2023-12-28T12:25:41;5.43;;;2.00;;
10132;SDS011;5106;50.926;7.080;2023-12-28T12:28:10;4.45;;;1.42;;
10132;SDS011;5106;50.926;7.080;2023-12-28T12:30:36;4.18;;;1.50;;
10132;SDS011;5106;50.926;7.080;2023-12-28T12:33:01;4.20;;;1.23;;
10132;SDS011;5106;50.926;7.080;2023-12-28T12:35:27;5.53;;;1.52;;
10132;SDS011;5106;50.926;7.080;2023-12-28T12:37:53;3.30;;;1.52;;
10132;SDS011;5106;50.926;7.080;2023-12-28T12:40:19;5.35;;;1.20;;
10132;SDS011;5106;50.926;7.080;2023-12-28T12:42:52;3.10;;;1.17;;
10132;SDS011;5106;50.926;7.080;2023-12-28T12:45:19;4.65;;;1.70;;
10132;SDS011;5106;50.926;7.080;2023-12-28T12:47:46;4.93;;;1.48;;
10132;SDS011;5106;50.926;7.080;2023-12-28T12:50:12;6.65;;;1.50;;
10132;SDS011;5106;50.926;7.080;2023-12-28T12:52:38;5.53;;;1.67;;
10132;SDS011;5106;50.926;7.080;2023-12-28T12:55:04;4.88;;;1.65;;
10132;SDS011;5106;50.926;7.080;2023-12-28T12:57:30;4.80;;;1.45;;
10132;SDS011;5106;50.926;7.080;2023-12-28T12:59:56;4.15;;;1.55;;
10132;SDS011;5106;50.926;7.080;2023-12-28T13:02:22;4.13;;;1.10;;
10132;SDS011;5106;50.926;7.080;2023-12-28T13:04:51;3.58;;;1.33;;
10132;SDS011;5106;50.926;7.080;2023-12-28T13:07:18;2.15;;;1.30;;
10132;SDS011;5106;50.926;7.080;2023-12-28T13:09:44;5.85;;;1.48;;
10132;SDS011;5106;50.926;7.080;2023-12-28T13:12:10;3.70;;;1.40;;
10132;SDS011;5106;50.926;7.080;2023-12-28T13:14:35;3.40;;;1.20;;
10132;SDS011;5106;50.926;7.080;2023-12-28T13:17:01;4.05;;;1.80;;
10132;SDS011;5106;50.926;7.080;2023-12-28T13:19:27;5.35;;;1.52;;
10132;SDS011;5106;50.926;7.080;2023-12-28T13:21:53;3.83;;;1.83;;
10132;SDS011;5106;50.926;7.080;2023-12-28T13:24:19;6.20;;;1.67;;
10132;SDS011;5106;50.926;7.080;2023-12-28T13:26:45;4.65;;;1.30;;
10132;SDS011;5106;50.926;7.080;2023-12-28T13:29:10;3.90;;;1.70;;
10132;SDS011;5106;50.926;7.080;2023-12-28T13:31:36;7.13;;;1.45;;
10132;SDS011;5106;50.926;7.080;2023-12-28T13:34:02;5.80;;;1.60;;
10132;SDS011;5106;50.926;7.080;2023-12-28T13:36:28;2.80;;;1.30;;
10132;SDS011;5106;50.926;7.080;2023-12-28T13:38:53;3.80;;;1.38;;
10132;SDS011;5106;50.926;7.080;2023-12-28T13:41:19;5.55;;;1.42;;
10132;SDS011;5106;50.926;7.080;2023-12-28T13:43:45;5.53;;;1.63;;
10132;SDS011;5106;50.926;7.080;2023-12-28T13:46:11;5.90;;;1.63;;
10132;SDS011;5106;50.926;7.080;2023-12-28T13:48:36;2.67;;;1.33;;
10132;SDS011;5106;50.926;7.080;2023-12-28T13:51:05;3.15;;;1.23;;
10132;SDS011;5106;50.926;7.080;2023-12-28T13:53:31;4.53;;;1.23;;
10132;SDS011;5106;50.926;7.080;2023-12-28T13:56:00;3.08;;;1.38;;
10132;SDS011;5106;50.926;7.080;2023-12-28T13:58:26;4.22;;;1.60;;
10132;SDS011;5106;50.926;7.080;2023-12-28T14:00:51;4.10;;;1.50;;
10132;SDS011;5106;50.926;7.080;2023-12-28T14:03:17;4.57;;;1.52;;
10132;SDS011;5106;50.926;7.080;2023-12-28T14:05:43;2.47;;;1.20;;
10132;SDS011;5106;50.926;7.080;2023-12-28T14:08:08;5.32;;;1.73;;
10132;SDS011;5106;50.926;7.080;2023-12-28T14:10:34;6.57;;;1.73;;
10132;SDS011;5106;50.926;7.080;2023-12-28T14:13:01;3.53;;;1.58;;
10132;SDS011;5106;50.926;7.080;2023-12-28T14:15:26;3.58;;;1.52;;
10132;SDS011;5106;50.926;7.080;2023-12-28T14:17:52;5.93;;;1.80;;
10132;SDS011;5106;50.926;7.080;2023-12-28T14:20:18;3.35;;;1.25;;
10132;SDS011;5106;50.926;7.080;2023-12-28T14:22:44;3.85;;;1.33;;
10132;SDS011;5106;50.926;7.080;2023-12-28T14:25:10;4.88;;;1.60;;
10132;SDS011;5106;50.926;7.080;2023-12-28T14:27:36;4.18;;;1.38;;
10132;SDS011;5106;50.926;7.080;2023-12-28T14:30:03;4.28;;;1.48;;
10132;SDS011;5106;50.926;7.080;2023-12-28T14:32:31;2.90;;;1.15;;
10132;SDS011;5106;50.926;7.080;2023-12-28T14:34:57;3.95;;;1.33;;
10132;SDS011;5106;50.926;7.080;2023-12-28T14:37:23;5.03;;;1.63;;
10132;SDS011;5106;50.926;7.080;2023-12-28T14:39:48;5.38;;;1.50;;
10132;SDS011;5106;50.926;7.080;2023-12-28T14:42:14;4.18;;;1.48;;
10132;SDS011;5106;50.926;7.080;2023-12-28T14:44:39;5.63;;;1.50;;
10132;SDS011;5106;50.926;7.080;2023-12-28T14:47:05;3.30;;;1.30;;
10132;SDS011;5106;50.926;7.080;2023-12-28T14:49:31;5.90;;;1.55;;
10132;SDS011;5106;50.926;7.080;2023-12-28T14:51:56;5.85;;;1.50;;
10132;SDS011;5106;50.926;7.080;2023-12-28T14:54:22;7.05;;;1.55;;
10132;SDS011;5106;50.926;7.080;2023-12-28T14:56:47;2.80;;;1.13;;
10132;SDS011;5106;50.926;7.080;2023-12-28T14:59:13;4.20;;;1.48;;
10132;SDS011;5106;50.926;7.080;2023-12-28T15:01:39;6.50;;;1.55;;